KCKB/CKB METAR and TAF weather

Enter ICAO airport designator
Station Type Date Time Source
KCKB METAR 2019/08/19 22:53 UTC NOAA

KCKB 192253Z 32006KT 10SM CLR 32/19 A3005 RMK AO2 SLP156 T03170194


Station Type Date Time Source
KCKB Decoded METAR 2019/08/19 22:53 UTC NOAA

HARRISON/MARION REGIONAL, WV, United States (KCKB) 39-18N 080-13W 360M
Aug 19, 2019 - 06:53 PM EDT / 2019.08.19 2253 UTC
Wind: from the NW (320 degrees) at 7 MPH (6 KT):0
Visibility: 10 mile(s):0
Sky conditions: clear
Temperature: 89.1 F (31.7 C)
Dew Point: 66.9 F (19.4 C)
Relative Humidity: 48%
Pressure (altimeter): 30.05 in. Hg (1017 hPa)
ob: KCKB 192253Z 32006KT 10SM CLR 32/19 A3005 RMK AO2 SLP156 T03170194
cycle: 23

Station Type Date Time Source
KCKB TAF 2019/08/19 18:33 UTC NOAA

TAF KCKB 191730Z 1918/2018 29007KT P6SM FEW040
FM200800 00000KT P6SM SCT060

Example: see airport list